Rehobeth, MD

3:45 PM EDT on September 18, 2014 (GMT -0400)
VADOT Rt_13_@_New_Church | Change Station
CLOSE
Current Station
Personal Weather Station
Location: Withams, VA
Elevation: 41 ft
Nearby Weather Stations

Elev 41 ft 37.98 °N, 75.53 °W | Updated 59 minutes ago

Mostly Cloudy
Mostly Cloudy
78 °F
Feels Like 79 °F
N
1
Wind Variable Wind from South
Gusts 3.0 mph

Today
High -- | Low -- °F
--% Chance of Precip.
Yesterday
High -- | Low -- °F
Precip. -- in
6:46 AM 7:05 PM
Waning Crescent, 25% visible
Pressure 30.01 in
Visibility 10.0 miles
Clouds Few 4000 ft
Mostly Cloudy 6000 ft
Mostly Cloudy 25000 ft
Heat Index 79 °F
Dew Point 56 °F
Humidity 47%
Rainfall 0.00 in
Snow Depth Not available.
UV 3 out of 12
Pollen 3.90 out of 12
Air Quality Not available.
Flu Activity Not available.
METAR KWAL 181854Z 17007KT 10SM FEW040 BKN060 BKN250 24/12 A3002 RMK AO2 SLP163 T02390122

More Conditions Fewer Conditions

Pressure 30.01 in
Visibility 10.0 miles
Clouds Few 4000 ft
Mostly Cloudy 6000 ft
Mostly Cloudy 25000 ft
Heat Index 79 °F
Dew Point 56 °F
Humidity 47%
Rainfall 0.00 in
Snow Depth Not available.
UV 3 out of 12
Pollen 3.90 out of 12
Air Quality Not available.
Flu Activity Not available.
METAR KWAL 181854Z 17007KT 10SM FEW040 BKN060 BKN250 24/12 A3002 RMK AO2 SLP163 T02390122

More Conditions Fewer Conditions

10-Day Weather Forecast

Almanac

Astronomy

Sep. 18, 2014 Rise Set
Actual Time 6:46 AM EDT 7:05 PM EDT
Civil Twilight 6:20 AM EDT 7:32 PM EDT
Nautical Twilight 5:49 AM EDT 8:03 PM EDT
Astronomical Twilight 5:18 AM EDT 8:34 PM EDT
Moon 1:40 AM EDT 3:52 PM EDT
Length of Visible Light 13h 11m
Length of Day
12h 19m
Tomorrow will be 2m 27s shorter.
Waning Crescent, 25% of the Moon is Illuminated
Today
Waning Crescent
Sep 24
New
Oct 1
First Quarter
Oct 8
Full
Oct 15
Last Quarter

Today's Extremes

State Highs State Lows

Community

WunderPhotos

Upload Photos

1,754,421 photos uploaded!

WunderBlogs® & News

By Dr. Jeff Masters
Director of Meteorology, Weather Underground
By Kari Strenfel
Meteorologist, Weather Underground
By Christopher C. Burt
Weather Historian, Weather Underground
September 18, 2014
September 18, 2014
September 18, 2014

Nearby

Snow Depth

Station Depth Elevation
No new snow has been reported.

Earthquake Activity

City Distance Mag. Time & Date
No recent earthquake activity has been reported nearby.
Minimum magnitude displayed is 2.5.

Coastal Water Temperatures

Place Temperature
Wachapreague, VA 73.9 °F
Lewisetta, VA 75.0 °F
Bishops Head, MD 73.9 °F

Nearby Weather Stations